createdAt,value
2023-02-08T00:01:08.077Z,35.57
2023-02-08T00:03:35.827Z,42.63
2023-02-08T00:06:03.350Z,29.37
2023-02-08T00:08:31.120Z,27.20
2023-02-08T00:10:58.829Z,28.07
2023-02-08T00:13:26.333Z,32.80
2023-02-08T00:15:55.330Z,30.90
2023-02-08T00:18:24.166Z,27.37
2023-02-08T00:20:53.294Z,31.90
2023-02-08T00:23:20.771Z,28.83
2023-02-08T00:25:48.340Z,28.40
2023-02-08T00:28:17.492Z,27.83
2023-02-08T00:30:45.502Z,46.47
2023-02-08T00:33:13.311Z,40.77
2023-02-08T00:35:42.454Z,31.80
2023-02-08T00:38:09.913Z,42.97
2023-02-08T00:40:37.520Z,34.00
2023-02-08T00:45:56.617Z,40.70
2023-02-08T00:48:25.906Z,38.53
2023-02-08T00:51:06.723Z,38.73
2023-02-08T00:53:37.076Z,32.23
2023-02-08T00:56:06.666Z,31.30
2023-02-08T00:58:34.919Z,39.60
2023-02-08T01:01:02.948Z,40.47
2023-02-08T01:03:34.665Z,27.47
2023-02-08T01:06:04.507Z,45.90
2023-02-08T01:08:33.592Z,48.00
2023-02-08T01:11:05.996Z,37.40
2023-02-08T01:13:33.460Z,45.40
2023-02-08T01:16:07.914Z,38.20
2023-02-08T01:18:35.381Z,37.10
2023-02-08T01:21:09.615Z,56.90
2023-02-08T01:23:37.516Z,37.83
2023-02-08T01:26:05.353Z,31.90
2023-02-08T01:28:33.756Z,52.87
2023-02-08T01:31:01.971Z,33.57
2023-02-08T01:33:29.517Z,40.20
2023-02-08T01:35:56.983Z,39.90
2023-02-08T01:38:25.838Z,37.60
2023-02-08T01:40:53.573Z,41.23
2023-02-08T01:43:24.798Z,43.50
2023-02-08T01:45:52.847Z,37.93
2023-02-08T01:48:24.827Z,55.70
2023-02-08T01:50:58.671Z,36.63
2023-02-08T01:53:29.957Z,45.83
2023-02-08T01:56:03.433Z,37.90
2023-02-08T01:58:34.048Z,36.87
2023-02-08T02:01:02.508Z,51.43
2023-02-08T02:03:30.189Z,37.90
2023-02-08T02:06:02.520Z,46.47
2023-02-08T02:08:33.545Z,28.97
2023-02-08T02:11:01.066Z,32.10
2023-02-08T02:13:29.149Z,33.57
2023-02-08T02:15:56.596Z,42.27
2023-02-08T02:18:26.140Z,35.60
2023-02-08T02:21:20.903Z,30.63
2023-02-08T02:24:26.741Z,37.97
2023-02-08T02:27:28.022Z,36.90
2023-02-08T02:30:27.731Z,41.53
2023-02-08T02:33:15.911Z,35.57
2023-02-08T02:35:49.148Z,32.50
2023-02-08T02:38:26.478Z,39.87
2023-02-08T02:41:01.930Z,42.33
2023-02-08T02:43:42.159Z,43.20
2023-02-08T02:46:20.404Z,33.37
2023-02-08T02:48:55.461Z,42.03
2023-02-08T02:51:28.866Z,39.33
2023-02-08T02:54:01.087Z,30.87
2023-02-08T02:56:33.007Z,33.23
2023-02-08T02:59:05.785Z,43.30
2023-02-08T03:01:33.771Z,48.60
2023-02-08T03:04:13.873Z,37.73
2023-02-08T03:07:00.267Z,39.37
2023-02-08T03:09:47.862Z,37.93
2023-02-08T03:12:30.726Z,31.03
2023-02-08T03:15:05.072Z,31.77
2023-02-08T03:17:44.827Z,35.03
2023-02-08T03:20:18.899Z,40.27
2023-02-08T03:22:55.353Z,38.63
2023-02-08T03:25:28.360Z,37.13
2023-02-08T03:28:04.924Z,28.13
2023-02-08T03:30:48.336Z,34.23
2023-02-08T03:33:21.194Z,37.23
2023-02-08T03:35:53.457Z,38.87
2023-02-08T03:38:26.401Z,36.30
2023-02-08T03:40:56.892Z,38.97
2023-02-08T03:43:29.818Z,25.93
2023-02-08T03:46:04.157Z,36.20
2023-02-08T03:48:34.174Z,44.67
2023-02-08T03:51:05.580Z,33.00
2023-02-08T03:53:38.194Z,31.23
2023-02-08T03:56:18.001Z,34.03
2023-02-08T03:58:49.990Z,34.97
2023-02-08T04:01:23.246Z,39.07
2023-02-08T04:03:54.072Z,36.43
2023-02-08T04:06:23.467Z,35.80
2023-02-08T04:08:51.424Z,29.10
2023-02-08T04:11:19.293Z,26.67
2023-02-08T04:13:47.183Z,28.43
2023-02-08T04:16:14.736Z,32.40
2023-02-08T04:18:42.178Z,38.87
2023-02-08T04:21:09.603Z,33.67
2023-02-08T04:23:38.395Z,29.80
2023-02-08T04:26:07.537Z,31.83
2023-02-08T04:28:35.366Z,42.97
2023-02-08T04:31:03.018Z,31.73
2023-02-08T04:33:30.516Z,32.27
2023-02-08T04:35:58.037Z,32.43
2023-02-08T04:38:25.697Z,36.43
2023-02-08T04:40:54.464Z,39.97
2023-02-08T04:43:21.917Z,34.37
2023-02-08T04:45:50.993Z,49.67
2023-02-08T04:48:18.707Z,40.27
2023-02-08T04:50:47.380Z,42.50
2023-02-08T04:53:15.195Z,26.23
2023-02-08T04:55:42.953Z,36.40
2023-02-08T04:58:11.777Z,34.17
2023-02-08T05:00:39.443Z,29.60
2023-02-08T05:03:07.163Z,42.87
2023-02-08T05:05:34.791Z,35.73
2023-02-08T05:08:02.313Z,44.53
2023-02-08T05:10:29.925Z,34.10
2023-02-08T05:12:57.517Z,30.83
2023-02-08T05:15:26.301Z,40.60
2023-02-08T05:17:53.904Z,30.70
2023-02-08T05:20:21.535Z,39.70
2023-02-08T05:22:49.161Z,54.20
2023-02-08T05:25:17.954Z,32.67
2023-02-08T05:27:45.501Z,42.57
2023-02-08T05:30:13.447Z,31.33
2023-02-08T05:32:42.246Z,37.90
2023-02-08T05:35:10.461Z,30.67
2023-02-08T05:37:38.129Z,34.00
2023-02-08T05:40:06.240Z,34.43
2023-02-08T05:42:33.715Z,36.77
2023-02-08T05:45:01.163Z,32.40
2023-02-08T05:47:28.622Z,44.40
2023-02-08T05:49:57.417Z,30.80
2023-02-08T05:52:24.899Z,43.07
2023-02-08T05:54:52.437Z,41.47
2023-02-08T05:57:19.939Z,31.33
2023-02-08T05:59:47.645Z,38.10
2023-02-08T06:02:15.286Z,34.93
2023-02-08T06:04:42.733Z,41.57
2023-02-08T06:07:11.515Z,50.47
2023-02-08T06:09:39.022Z,45.57
2023-02-08T06:12:07.136Z,40.80
2023-02-08T06:14:34.648Z,42.03
2023-02-08T06:17:02.090Z,36.80
2023-02-08T06:19:29.681Z,41.10
2023-02-08T06:21:57.194Z,45.50
2023-02-08T06:24:26.028Z,51.87
2023-02-08T06:26:53.488Z,35.57
2023-02-08T06:29:21.100Z,40.27
2023-02-08T06:31:48.816Z,34.37
2023-02-08T06:34:16.357Z,48.67
2023-02-08T06:36:45.669Z,35.07
2023-02-08T06:39:13.350Z,34.97
2023-02-08T06:41:43.713Z,32.33
2023-02-08T06:44:13.789Z,34.80
2023-02-08T06:46:41.231Z,27.23
2023-02-08T06:49:08.692Z,34.20
2023-02-08T06:51:36.184Z,40.80
2023-02-08T06:54:03.937Z,37.97
2023-02-08T06:56:31.580Z,39.30
2023-02-08T06:59:00.551Z,47.47
2023-02-08T07:01:28.286Z,33.60
2023-02-08T07:03:55.872Z,37.27
2023-02-08T07:06:23.476Z,36.03
2023-02-08T07:08:51.048Z,51.33
2023-02-08T07:11:20.686Z,39.43
2023-02-08T07:13:49.712Z,37.50
2023-02-08T07:16:19.670Z,37.10
2023-02-08T07:18:47.655Z,38.17
2023-02-08T07:21:15.298Z,37.90
2023-02-08T07:23:42.992Z,46.93
2023-02-08T07:26:12.557Z,33.93
2023-02-08T07:28:40.086Z,34.97
2023-02-08T07:31:08.110Z,38.17
2023-02-08T07:33:37.056Z,35.83
2023-02-08T07:36:05.342Z,30.40
2023-02-08T07:38:33.657Z,47.97
2023-02-08T07:41:02.551Z,39.50
2023-02-08T07:43:30.167Z,37.43
2023-02-08T07:46:00.562Z,44.13
2023-02-08T07:48:28.373Z,41.60
2023-02-08T07:50:57.149Z,65.27
2023-02-08T07:53:24.710Z,39.63
2023-02-08T07:55:52.179Z,34.60
2023-02-08T07:58:19.638Z,55.83
2023-02-08T08:00:47.068Z,44.63
2023-02-08T08:03:14.508Z,39.00
2023-02-08T08:05:42.667Z,46.57
2023-02-08T08:08:12.719Z,44.00
2023-02-08T08:10:40.840Z,42.77
2023-02-08T08:13:08.486Z,51.20
2023-02-08T08:15:35.968Z,36.83
2023-02-08T08:18:03.468Z,40.00
2023-02-08T08:20:30.917Z,34.07
2023-02-08T08:22:58.347Z,41.40
2023-02-08T08:25:28.110Z,45.40
2023-02-08T08:27:55.626Z,49.33
2023-02-08T08:30:23.687Z,44.80
2023-02-08T08:32:51.182Z,47.60
2023-02-08T08:35:19.094Z,29.33
2023-02-08T08:37:46.675Z,47.63
2023-02-08T08:40:14.113Z,42.87
2023-02-08T08:42:42.952Z,37.17
2023-02-08T08:45:11.519Z,29.30
2023-02-08T08:47:39.289Z,35.17
2023-02-08T08:50:07.528Z,35.70
2023-02-08T08:52:34.953Z,34.27
2023-02-08T08:55:02.492Z,28.93
2023-02-08T08:57:29.988Z,39.23
2023-02-08T08:59:58.758Z,36.47
2023-02-08T09:02:26.324Z,35.33
2023-02-08T09:04:53.794Z,45.73
2023-02-08T09:07:21.318Z,32.37
2023-02-08T09:09:48.791Z,42.27
2023-02-08T09:12:16.484Z,53.77
2023-02-08T09:14:44.832Z,42.30
2023-02-08T09:17:13.626Z,39.53
2023-02-08T09:19:42.435Z,37.73
2023-02-08T09:22:09.923Z,48.53
2023-02-08T09:24:37.411Z,31.60
2023-02-08T09:27:05.220Z,36.40
2023-02-08T09:29:33.782Z,38.13
2023-02-08T09:32:01.395Z,39.70
2023-02-08T09:34:30.277Z,30.37
2023-02-08T09:36:57.744Z,40.60
2023-02-08T09:39:26.786Z,35.90
2023-02-08T09:42:17.975Z,34.20
2023-02-08T09:44:56.947Z,35.20
2023-02-08T09:47:30.397Z,38.87
2023-02-08T09:50:04.264Z,42.33
2023-02-08T09:52:38.418Z,34.87
2023-02-08T09:55:22.241Z,42.03
2023-02-08T09:57:54.194Z,31.77
2023-02-08T10:00:28.811Z,29.90
2023-02-08T10:03:00.717Z,29.30
2023-02-08T10:05:31.333Z,36.17
2023-02-08T10:08:00.667Z,36.33
2023-02-08T10:10:38.551Z,33.73
2023-02-08T10:13:19.290Z,31.43
2023-02-08T10:15:54.313Z,27.20
2023-02-08T10:18:34.127Z,41.23
2023-02-08T10:21:15.636Z,35.60
2023-02-08T10:24:04.479Z,44.13
2023-02-08T10:26:38.223Z,32.90
2023-02-08T10:29:21.139Z,28.77
2023-02-08T10:32:06.184Z,32.80
2023-02-08T10:34:44.475Z,36.33
2023-02-08T10:37:17.863Z,21.53
2023-02-08T10:39:46.425Z,37.50
2023-02-08T10:42:16.173Z,32.87
2023-02-08T10:44:55.032Z,25.43
2023-02-08T10:47:38.255Z,24.23
2023-02-08T10:50:13.718Z,27.50
2023-02-08T10:52:42.930Z,28.17
2023-02-08T10:55:14.864Z,23.10
2023-02-08T10:57:43.484Z,29.73
2023-02-08T11:00:19.011Z,24.27
2023-02-08T11:02:49.128Z,26.07
2023-02-08T11:05:23.281Z,29.70
2023-02-08T11:08:05.919Z,20.80
2023-02-08T11:10:34.067Z,29.40
2023-02-08T11:13:05.589Z,40.63
2023-02-08T11:15:40.971Z,36.87
2023-02-08T11:18:20.486Z,25.03
2023-02-08T11:20:50.402Z,25.20
2023-02-08T11:23:26.767Z,22.30
2023-02-08T11:25:55.210Z,20.00
2023-02-08T11:28:26.066Z,23.50
2023-02-08T11:31:01.800Z,28.10
2023-02-08T11:33:30.824Z,24.30
2023-02-08T11:36:06.034Z,28.60
2023-02-08T11:38:37.504Z,28.10
2023-02-08T11:41:15.586Z,30.33
2023-02-08T11:43:43.726Z,24.80
2023-02-08T11:46:11.906Z,24.60
2023-02-08T11:48:44.555Z,20.37
2023-02-08T11:51:16.091Z,25.93
2023-02-08T11:53:49.596Z,25.20
2023-02-08T11:56:20.169Z,25.17
2023-02-08T11:59:00.085Z,21.77
2023-02-08T12:01:29.838Z,21.87
2023-02-08T12:04:00.130Z,26.93
2023-02-08T12:06:47.714Z,20.30
2023-02-08T12:09:29.075Z,18.73
2023-02-08T12:12:06.565Z,22.17
2023-02-08T12:14:48.163Z,23.17
2023-02-08T12:17:30.109Z,25.30
2023-02-08T12:20:15.776Z,20.80
2023-02-08T12:22:55.372Z,58.17
2023-02-08T12:25:31.546Z,23.00
2023-02-08T12:28:07.115Z,18.20
2023-02-08T12:30:37.508Z,22.87
2023-02-08T12:33:25.043Z,17.80
2023-02-08T12:36:09.234Z,27.97
2023-02-08T12:39:19.456Z,26.00
2023-02-08T12:42:17.312Z,21.57
2023-02-08T12:45:03.568Z,19.03
2023-02-08T12:47:58.221Z,19.40
2023-02-08T12:50:39.952Z,15.53
2023-02-08T12:53:21.445Z,13.60
2023-02-08T12:55:52.111Z,17.27
2023-02-08T12:58:29.913Z,23.67
2023-02-08T13:01:01.217Z,19.37
2023-02-08T13:03:39.300Z,16.33
2023-02-08T13:06:08.932Z,13.03
2023-02-08T13:08:42.051Z,18.90
2023-02-08T13:11:20.201Z,11.20
2023-02-08T13:13:58.251Z,17.27
2023-02-08T13:16:29.315Z,21.90
2023-02-08T13:19:12.458Z,27.50
2023-02-08T13:21:43.670Z,17.23
2023-02-08T13:24:27.319Z,16.30
2023-02-08T13:26:54.814Z,15.93
2023-02-08T13:29:27.870Z,13.70
2023-02-08T13:32:00.419Z,12.90
2023-02-08T13:34:34.354Z,12.63
2023-02-08T13:37:08.812Z,12.47
2023-02-08T13:39:42.912Z,11.97
2023-02-08T13:42:22.172Z,13.10
2023-02-08T13:44:54.997Z,12.87
2023-02-08T13:47:25.639Z,19.67
2023-02-08T13:49:57.262Z,11.57
2023-02-08T13:52:51.674Z,10.27
2023-02-08T13:55:42.974Z,8.80
2023-02-08T13:58:39.365Z,12.90
2023-02-08T14:01:21.430Z,10.87
2023-02-08T14:04:17.728Z,19.37
2023-02-08T14:06:50.962Z,10.10
2023-02-08T14:09:25.047Z,15.70
2023-02-08T14:11:57.182Z,8.07
2023-02-08T14:14:27.955Z,13.93
2023-02-08T14:17:19.622Z,15.10
2023-02-08T14:19:58.396Z,7.33
2023-02-08T14:22:28.471Z,13.50
2023-02-08T14:25:08.780Z,16.57
2023-02-08T14:27:40.504Z,14.57
2023-02-08T14:30:21.372Z,11.70
2023-02-08T14:32:53.542Z,15.03
2023-02-08T14:35:24.644Z,14.97
2023-02-08T14:38:30.853Z,9.70
2023-02-08T14:41:00.581Z,13.03
2023-02-08T14:43:31.948Z,12.53
2023-02-08T14:46:43.204Z,15.03
2023-02-08T14:49:14.345Z,26.53
2023-02-08T14:51:46.036Z,25.07
2023-02-08T14:54:22.213Z,15.73
2023-02-08T14:56:58.275Z,21.57
2023-02-08T14:59:28.352Z,9.20
2023-02-08T15:01:59.862Z,13.30
2023-02-08T15:04:29.148Z,17.10
2023-02-08T15:07:20.030Z,16.60
2023-02-08T15:09:47.769Z,23.03
2023-02-08T15:12:23.065Z,25.80
2023-02-08T15:14:52.461Z,19.23
2023-02-08T15:17:33.430Z,23.63
2023-02-08T15:20:06.586Z,19.07
2023-02-08T15:22:37.298Z,15.00
2023-02-08T15:25:22.251Z,18.17
2023-02-08T15:27:51.304Z,18.97
2023-02-08T15:30:28.209Z,24.43
2023-02-08T15:32:56.515Z,20.30
2023-02-08T15:35:27.272Z,19.47
2023-02-08T15:37:56.684Z,15.40
2023-02-08T15:40:29.094Z,24.87
2023-02-08T15:43:04.928Z,17.00
2023-02-08T15:45:32.581Z,21.13
2023-02-08T15:48:00.991Z,24.83
2023-02-08T15:50:33.205Z,30.50
2023-02-08T15:53:04.142Z,20.60
2023-02-08T15:55:34.819Z,19.57
2023-02-08T15:58:07.037Z,26.83
2023-02-08T16:00:37.774Z,19.30
2023-02-08T16:03:08.603Z,25.20
2023-02-08T16:05:38.918Z,23.30
2023-02-08T16:08:07.491Z,20.60
2023-02-08T16:10:40.117Z,15.87
2023-02-08T16:13:15.953Z,18.43
2023-02-08T16:15:46.003Z,14.77
2023-02-08T16:18:34.395Z,20.30
2023-02-08T16:21:05.277Z,20.93
2023-02-08T16:23:34.462Z,20.23
2023-02-08T16:26:14.299Z,27.03
2023-02-08T16:28:41.802Z,18.30
2023-02-08T16:31:09.694Z,19.93
2023-02-08T16:33:39.441Z,19.23
2023-02-08T16:36:08.430Z,21.97
2023-02-08T16:38:36.104Z,17.10
2023-02-08T16:41:13.006Z,13.97
2023-02-08T16:43:43.754Z,16.57
2023-02-08T16:46:25.097Z,19.80
2023-02-08T16:48:54.635Z,24.20
2023-02-08T16:51:25.595Z,16.70
2023-02-08T16:53:56.176Z,23.47
2023-02-08T16:56:24.557Z,23.97
2023-02-08T16:58:52.195Z,21.57
2023-02-08T17:01:22.953Z,23.53
2023-02-08T17:03:52.812Z,23.03
2023-02-08T17:06:30.319Z,24.87
2023-02-08T17:08:58.109Z,27.07
2023-02-08T17:11:26.110Z,23.87
2023-02-08T17:13:53.821Z,19.27
2023-02-08T17:16:23.374Z,26.00
2023-02-08T17:18:51.461Z,24.43
2023-02-08T17:21:19.754Z,26.97
2023-02-08T17:23:48.554Z,27.10
2023-02-08T17:26:19.007Z,23.97
2023-02-08T17:28:46.564Z,27.90
2023-02-08T17:31:15.173Z,28.63
2023-02-08T17:33:43.270Z,24.83
2023-02-08T17:36:12.995Z,25.30
2023-02-08T17:38:41.878Z,29.03
2023-02-08T17:41:15.229Z,31.17
2023-02-08T17:43:42.854Z,22.60
2023-02-08T17:46:11.517Z,27.17
2023-02-08T17:48:39.078Z,31.33
2023-02-08T17:51:10.438Z,28.63
2023-02-08T17:53:40.674Z,27.73
2023-02-08T17:56:09.577Z,27.17
2023-02-08T17:58:38.484Z,38.23
2023-02-08T18:01:07.392Z,29.20
2023-02-08T18:03:35.445Z,42.87
2023-02-08T18:06:03.545Z,34.30
2023-02-08T18:08:31.002Z,31.37
2023-02-08T18:11:04.234Z,32.13
2023-02-08T18:13:31.649Z,28.43
2023-02-08T18:16:07.581Z,33.80
2023-02-08T18:18:35.158Z,37.57
2023-02-08T18:21:02.634Z,29.03
2023-02-08T18:23:30.074Z,32.53
2023-02-08T18:26:04.757Z,37.40
2023-02-08T18:28:33.233Z,41.60
2023-02-08T18:31:07.657Z,37.00
2023-02-08T18:33:35.879Z,33.37
2023-02-08T18:36:06.039Z,47.80
2023-02-08T18:38:34.144Z,36.50
2023-02-08T18:41:01.763Z,36.57
2023-02-08T18:43:30.248Z,40.87
2023-02-08T18:46:10.096Z,36.80
2023-02-08T18:48:37.866Z,40.03
2023-02-08T18:51:06.952Z,39.00
2023-02-08T18:53:37.074Z,43.80
2023-02-08T18:56:07.255Z,35.97
2023-02-08T18:58:35.093Z,46.93
2023-02-08T19:01:08.706Z,43.10
2023-02-08T19:03:36.615Z,43.13
2023-02-08T19:06:06.140Z,44.07
2023-02-08T19:08:36.392Z,46.93
2023-02-08T19:11:04.790Z,44.60
2023-02-08T19:13:34.311Z,43.17
2023-02-08T19:16:01.796Z,39.40
2023-02-08T19:18:30.622Z,41.03
2023-02-08T19:21:03.864Z,47.53
2023-02-08T19:23:31.302Z,48.53
2023-02-08T19:26:02.513Z,42.70
2023-02-08T19:28:33.545Z,40.97
2023-02-08T19:31:06.063Z,50.70
2023-02-08T19:33:34.993Z,45.07
2023-02-08T19:36:08.143Z,46.70
2023-02-08T19:38:35.770Z,50.60
2023-02-08T19:41:03.634Z,45.33
2023-02-08T19:43:31.289Z,58.43
2023-02-08T19:45:58.915Z,39.90
2023-02-08T19:48:27.182Z,53.20
2023-02-08T19:50:57.299Z,49.00
2023-02-08T19:53:25.776Z,44.07
2023-02-08T19:55:57.840Z,54.50
2023-02-08T19:58:26.111Z,47.50
2023-02-08T20:00:53.889Z,57.07
2023-02-08T20:03:23.605Z,51.13
2023-02-08T20:05:53.552Z,61.23
2023-02-08T20:08:26.333Z,44.20
2023-02-08T20:10:55.826Z,44.73
2023-02-08T20:13:24.140Z,53.43
2023-02-08T20:15:51.798Z,46.67
2023-02-08T20:18:21.915Z,45.40
2023-02-08T20:21:00.590Z,42.57
2023-02-08T20:23:30.646Z,48.57
2023-02-08T20:26:10.784Z,44.23
2023-02-08T20:28:41.515Z,39.77
2023-02-08T20:31:10.269Z,42.83
2023-02-08T20:33:38.328Z,69.53
2023-02-08T20:36:08.287Z,44.83
2023-02-08T20:38:38.223Z,43.20
2023-02-08T20:41:07.288Z,51.83
2023-02-08T20:43:35.161Z,62.00
2023-02-08T20:46:06.400Z,53.00
2023-02-08T20:48:34.170Z,52.87
2023-02-08T20:51:06.254Z,44.30
2023-02-08T20:53:34.718Z,52.70
2023-02-08T20:56:07.156Z,42.50
2023-02-08T20:58:35.044Z,56.83
2023-02-08T21:01:02.836Z,55.87
2023-02-08T21:03:30.402Z,45.90
2023-02-08T21:05:57.891Z,39.17
2023-02-08T21:08:25.390Z,39.90
2023-02-08T21:10:52.866Z,40.40
2023-02-08T21:13:21.866Z,38.67
2023-02-08T21:15:49.919Z,49.60
2023-02-08T21:18:17.434Z,41.17
2023-02-08T21:20:45.596Z,47.53
2023-02-08T21:23:13.544Z,48.83
2023-02-08T21:25:44.611Z,45.13
2023-02-08T21:28:12.848Z,37.40
2023-02-08T21:30:42.476Z,43.23
2023-02-08T21:33:10.102Z,37.13
2023-02-08T21:35:38.745Z,36.60
2023-02-08T21:38:06.742Z,47.47
2023-02-08T21:40:34.952Z,46.70
2023-02-08T21:43:02.420Z,43.70
2023-02-08T21:45:29.989Z,40.00
2023-02-08T21:47:59.855Z,38.20
2023-02-08T21:50:45.790Z,45.93
2023-02-08T21:53:32.613Z,41.13
2023-02-08T21:56:00.354Z,43.63
2023-02-08T21:58:28.726Z,42.00
2023-02-08T22:00:56.492Z,44.93
2023-02-08T22:03:29.816Z,43.97
2023-02-08T22:06:15.444Z,37.17
2023-02-08T22:08:43.100Z,45.43
2023-02-08T22:11:12.420Z,39.10
2023-02-08T22:13:40.089Z,35.80
2023-02-08T22:16:08.858Z,43.80
2023-02-08T22:18:41.166Z,37.93
2023-02-08T22:21:09.106Z,41.63
2023-02-08T22:23:36.580Z,40.03
2023-02-08T22:26:08.237Z,44.87
2023-02-08T22:28:36.222Z,40.03
2023-02-08T22:31:04.835Z,49.17
2023-02-08T22:33:32.408Z,34.53
2023-02-08T22:36:01.326Z,45.47
2023-02-08T22:38:28.846Z,42.13
2023-02-08T22:40:56.303Z,37.63
2023-02-08T22:43:23.798Z,38.90
2023-02-08T22:45:58.338Z,34.70
2023-02-08T22:48:26.401Z,42.77
2023-02-08T22:50:54.344Z,40.13
2023-02-08T22:53:23.270Z,49.43
2023-02-08T22:55:51.328Z,36.97
2023-02-08T22:58:19.196Z,41.03
2023-02-08T23:00:48.269Z,40.63
2023-02-08T23:03:16.307Z,37.13
2023-02-08T23:05:45.311Z,33.83
2023-02-08T23:08:14.672Z,34.50
2023-02-08T23:10:44.250Z,42.50
2023-02-08T23:13:12.914Z,45.33
2023-02-08T23:15:42.988Z,36.13
2023-02-08T23:18:11.102Z,42.97
2023-02-08T23:20:39.211Z,29.87
2023-02-08T23:23:06.922Z,33.97
2023-02-08T23:25:34.454Z,30.23
2023-02-08T23:28:03.351Z,30.23
2023-02-08T23:30:31.051Z,23.83
2023-02-08T23:32:58.580Z,35.43
2023-02-08T23:35:26.414Z,36.40
2023-02-08T23:37:53.932Z,33.33
2023-02-08T23:40:21.683Z,35.37
2023-02-08T23:42:49.165Z,39.07
2023-02-08T23:45:18.164Z,35.67
2023-02-08T23:47:45.666Z,28.33
2023-02-08T23:50:13.186Z,31.30
2023-02-08T23:52:40.630Z,34.43
2023-02-08T23:55:10.088Z,29.40
2023-02-08T23:57:38.519Z,27.30
